createdAt,value
2022-11-28T00:01:41.443Z,13.10
2022-11-28T00:04:09.566Z,16.10
2022-11-28T00:06:45.760Z,12.95
2022-11-28T00:09:14.505Z,14.10
2022-11-28T00:11:42.912Z,18.02
2022-11-28T00:14:10.547Z,22.80
2022-11-28T00:16:38.169Z,18.52
2022-11-28T00:19:06.285Z,17.98
2022-11-28T00:21:33.610Z,18.75
2022-11-28T00:24:01.774Z,20.70
2022-11-28T00:26:36.797Z,16.38
2022-11-28T00:29:04.866Z,13.20
2022-11-28T00:31:34.324Z,13.07
2022-11-28T00:34:03.467Z,20.80
2022-11-28T00:36:31.449Z,16.58
2022-11-28T00:38:59.092Z,18.13
2022-11-28T00:41:29.818Z,14.13
2022-11-28T00:43:57.762Z,13.98
2022-11-28T00:46:25.159Z,15.85
2022-11-28T00:48:52.767Z,20.60
2022-11-28T00:51:23.355Z,21.10
2022-11-28T00:53:53.161Z,16.73
2022-11-28T00:56:27.348Z,17.35
2022-11-28T00:58:54.678Z,16.52
2022-11-28T01:01:37.228Z,16.90
2022-11-28T01:04:07.595Z,16.10
2022-11-28T01:06:37.979Z,19.98
2022-11-28T01:09:26.615Z,17.00
2022-11-28T01:11:54.554Z,15.40
2022-11-28T01:14:24.675Z,18.75
2022-11-28T01:16:51.753Z,18.67
2022-11-28T01:19:19.640Z,17.42
2022-11-28T01:21:46.769Z,16.23
2022-11-28T01:24:14.847Z,19.65
2022-11-28T01:26:42.604Z,16.42
2022-11-28T01:29:10.116Z,13.60
2022-11-28T01:31:37.587Z,19.15
2022-11-28T01:34:04.792Z,21.80
2022-11-28T01:36:32.192Z,21.23
2022-11-28T01:38:59.262Z,19.02
2022-11-28T01:41:28.302Z,17.90
2022-11-28T01:44:02.893Z,25.17
2022-11-28T01:46:31.126Z,20.13
2022-11-28T01:49:03.204Z,19.00
2022-11-28T01:51:31.661Z,28.30
2022-11-28T01:53:59.931Z,22.38
2022-11-28T01:56:31.779Z,21.27
2022-11-28T01:59:04.786Z,19.98
2022-11-28T02:01:32.079Z,19.53
2022-11-28T02:04:00.342Z,18.48
2022-11-28T02:06:28.333Z,15.68
2022-11-28T02:08:56.421Z,17.83
2022-11-28T02:12:01.174Z,17.65
2022-11-28T02:17:27.503Z,15.60
2022-11-28T02:20:36.296Z,13.77
2022-11-28T02:23:13.026Z,22.05
2022-11-28T02:26:01.794Z,17.10
2022-11-28T02:28:46.759Z,20.55
2022-11-28T02:31:59.019Z,19.92
2022-11-28T02:34:36.641Z,16.00
2022-11-28T02:37:23.478Z,17.25
2022-11-28T02:40:30.888Z,13.48
2022-11-28T02:43:28.751Z,15.60
2022-11-28T02:46:03.964Z,17.92
2022-11-28T02:48:51.313Z,18.73
2022-11-28T02:51:28.940Z,14.10
2022-11-28T02:53:57.403Z,14.10
2022-11-28T02:56:25.572Z,17.58
2022-11-28T02:58:53.040Z,16.50
2022-11-28T03:01:26.005Z,19.98
2022-11-28T03:04:07.998Z,19.00
2022-11-28T03:06:50.010Z,17.52
2022-11-28T03:09:37.070Z,17.92
2022-11-28T03:12:26.385Z,18.17
2022-11-28T03:14:55.039Z,18.65
2022-11-28T03:17:28.003Z,20.50
2022-11-28T03:19:55.029Z,13.97
2022-11-28T03:22:30.776Z,19.73
2022-11-28T03:25:06.325Z,18.50
2022-11-28T03:27:39.211Z,10.70
2022-11-28T03:30:19.752Z,12.20
2022-11-28T03:32:51.568Z,21.92
2022-11-28T03:35:24.183Z,12.25
2022-11-28T03:37:59.226Z,19.35
2022-11-28T03:40:33.441Z,16.60
2022-11-28T03:43:09.275Z,18.08
2022-11-28T03:45:43.354Z,11.80
2022-11-28T03:48:24.223Z,17.08
2022-11-28T03:50:58.922Z,16.05
2022-11-28T03:53:39.266Z,17.27
2022-11-28T03:56:23.659Z,17.42
2022-11-28T03:59:00.168Z,18.58
2022-11-28T04:01:34.602Z,12.32
2022-11-28T04:04:27.040Z,12.45
2022-11-28T04:06:59.633Z,16.33
2022-11-28T04:09:49.842Z,11.60
2022-11-28T04:12:32.022Z,17.52
2022-11-28T04:15:12.189Z,12.15
2022-11-28T04:17:51.244Z,13.75
2022-11-28T04:20:42.709Z,16.30
2022-11-28T04:23:13.166Z,19.50
2022-11-28T04:25:47.147Z,14.73
2022-11-28T04:28:20.572Z,16.70
2022-11-28T04:30:49.941Z,9.02
2022-11-28T04:33:19.490Z,12.15
2022-11-28T04:35:51.706Z,21.70
2022-11-28T04:38:19.735Z,14.02
2022-11-28T04:40:59.596Z,18.02
2022-11-28T04:44:08.608Z,19.55
2022-11-28T04:46:43.605Z,20.10
2022-11-28T04:49:12.307Z,16.13
2022-11-28T04:52:01.809Z,19.73
2022-11-28T04:54:54.076Z,12.65
2022-11-28T04:57:42.296Z,12.77
2022-11-28T05:00:17.953Z,18.73
2022-11-28T05:02:46.803Z,14.85
2022-11-28T05:05:21.950Z,17.27
2022-11-28T05:07:49.201Z,18.10
2022-11-28T05:10:17.282Z,20.23
2022-11-28T05:12:44.385Z,23.92
2022-11-28T05:15:11.694Z,13.68
2022-11-28T05:17:42.136Z,20.35
2022-11-28T05:20:10.202Z,15.00
2022-11-28T05:22:37.242Z,17.35
2022-11-28T05:25:04.637Z,11.15
2022-11-28T05:27:31.702Z,14.02
2022-11-28T05:29:58.708Z,16.52
2022-11-28T05:32:25.676Z,13.57
2022-11-28T05:34:53.022Z,13.65
2022-11-28T05:37:20.152Z,12.88
2022-11-28T05:39:47.116Z,13.13
2022-11-28T05:42:14.200Z,14.18
2022-11-28T05:44:41.170Z,15.82
2022-11-28T05:47:08.137Z,11.85
2022-11-28T05:49:35.609Z,16.23
2022-11-28T05:52:02.666Z,15.30
2022-11-28T05:54:30.877Z,10.10
2022-11-28T05:56:58.088Z,9.52
2022-11-28T05:59:25.524Z,12.70
2022-11-28T06:01:52.919Z,12.98
2022-11-28T06:04:20.054Z,9.77
2022-11-28T06:06:49.752Z,12.23
2022-11-28T06:09:16.971Z,12.45
2022-11-28T06:11:44.168Z,14.30
2022-11-28T06:14:11.887Z,13.13
2022-11-28T06:16:39.259Z,14.73
2022-11-28T06:19:06.495Z,12.65
2022-11-28T06:21:34.018Z,13.05
2022-11-28T06:24:01.239Z,11.77
2022-11-28T06:26:29.029Z,12.77
2022-11-28T06:28:56.352Z,13.40
2022-11-28T06:31:28.474Z,14.98
2022-11-28T06:33:56.466Z,10.35
2022-11-28T06:36:24.020Z,11.95
2022-11-28T06:38:51.019Z,13.98
2022-11-28T06:41:19.878Z,15.50
2022-11-28T06:43:47.472Z,15.98
2022-11-28T06:46:17.803Z,13.10
2022-11-28T06:48:46.500Z,14.65
2022-11-28T06:51:14.604Z,12.32
2022-11-28T06:53:41.975Z,14.75
2022-11-28T06:56:11.796Z,15.77
2022-11-28T06:58:38.880Z,10.13
2022-11-28T07:01:18.416Z,10.70
2022-11-28T07:03:46.268Z,18.20
2022-11-28T07:06:14.817Z,12.35
2022-11-28T07:08:41.923Z,11.90
2022-11-28T07:11:10.444Z,14.48
2022-11-28T07:13:37.681Z,12.77
2022-11-28T07:16:05.198Z,15.23
2022-11-28T07:18:32.888Z,11.95
2022-11-28T07:21:00.081Z,16.25
2022-11-28T07:23:27.056Z,11.93
2022-11-28T07:26:02.705Z,16.73
2022-11-28T07:28:31.471Z,12.95
2022-11-28T07:31:22.001Z,12.25
2022-11-28T07:33:50.913Z,12.82
2022-11-28T07:36:26.973Z,13.77
2022-11-28T07:38:56.754Z,21.20
2022-11-28T07:41:26.737Z,10.60
2022-11-28T07:43:56.809Z,17.13
2022-11-28T07:46:25.273Z,14.50
2022-11-28T07:48:55.220Z,16.60
2022-11-28T07:51:29.151Z,18.77
2022-11-28T07:53:57.089Z,16.70
2022-11-28T07:56:39.322Z,15.82
2022-11-28T07:59:11.877Z,16.10
2022-11-28T08:01:39.086Z,15.13
2022-11-28T08:04:08.525Z,11.38
2022-11-28T08:06:41.935Z,14.65
2022-11-28T08:09:09.603Z,14.18
2022-11-28T08:11:36.785Z,11.93
2022-11-28T08:14:05.375Z,16.65
2022-11-28T08:16:32.901Z,17.35
2022-11-28T08:19:03.790Z,18.33
2022-11-28T08:21:32.881Z,9.48
2022-11-28T08:24:02.030Z,10.65
2022-11-28T08:26:31.225Z,12.77
2022-11-28T08:28:59.685Z,16.05
2022-11-28T08:31:30.624Z,13.95
2022-11-28T08:33:59.136Z,17.52
2022-11-28T08:36:28.930Z,17.55
2022-11-28T08:39:22.410Z,14.52
2022-11-28T08:41:43.547Z,16.45
2022-11-28T08:44:10.570Z,12.75
2022-11-28T08:46:37.632Z,13.98
2022-11-28T08:49:04.995Z,19.63
2022-11-28T08:51:32.434Z,16.65
2022-11-28T08:54:00.100Z,20.70
2022-11-28T08:56:28.770Z,18.45
2022-11-28T08:58:55.958Z,11.13
2022-11-28T09:01:25.112Z,14.25
2022-11-28T09:03:53.312Z,10.43
2022-11-28T09:06:22.024Z,10.23
2022-11-28T09:08:50.189Z,15.85
2022-11-28T09:11:20.416Z,12.30
2022-11-28T09:13:47.681Z,12.10
2022-11-28T09:16:15.773Z,17.33
2022-11-28T09:18:43.383Z,11.15
2022-11-28T09:21:12.734Z,14.95
2022-11-28T09:23:42.418Z,16.92
2022-11-28T09:26:15.238Z,10.07
2022-11-28T09:28:42.350Z,9.95
2022-11-28T09:31:09.654Z,12.70
2022-11-28T09:33:37.042Z,9.75
2022-11-28T09:36:09.101Z,18.95
2022-11-28T09:38:36.890Z,16.75
2022-11-28T09:41:15.427Z,15.73
2022-11-28T09:43:47.720Z,12.82
2022-11-28T09:46:25.017Z,13.68
2022-11-28T09:48:58.454Z,11.00
2022-11-28T09:51:31.525Z,16.13
2022-11-28T09:54:29.370Z,14.98
2022-11-28T09:56:59.158Z,16.00
2022-11-28T09:59:28.302Z,15.45
2022-11-28T10:01:58.464Z,12.90
2022-11-28T10:04:34.116Z,19.20
2022-11-28T10:07:19.802Z,14.57
2022-11-28T10:10:08.670Z,15.43
2022-11-28T10:13:01.914Z,10.48
2022-11-28T10:15:50.135Z,10.77
2022-11-28T10:18:45.899Z,11.10
2022-11-28T10:21:18.991Z,11.10
2022-11-28T10:23:48.478Z,18.35
2022-11-28T10:26:38.195Z,18.50
2022-11-28T10:29:27.170Z,19.52
2022-11-28T10:31:58.396Z,14.30
2022-11-28T10:34:41.825Z,20.95
2022-11-28T10:37:14.180Z,16.90
2022-11-28T10:39:44.952Z,20.88
2022-11-28T10:42:14.989Z,22.25
2022-11-28T10:45:03.742Z,20.50
2022-11-28T10:48:29.558Z,13.60
2022-11-28T10:51:11.143Z,14.98
2022-11-28T10:53:53.417Z,19.55
2022-11-28T10:57:03.938Z,14.98
2022-11-28T10:59:46.555Z,24.63
2022-11-28T11:02:32.643Z,18.77
2022-11-28T11:04:59.899Z,18.88
2022-11-28T11:07:31.834Z,20.00
2022-11-28T11:10:32.766Z,21.08
2022-11-28T11:13:00.160Z,24.52
2022-11-28T11:15:30.937Z,34.35
2022-11-28T11:17:58.892Z,25.55
2022-11-28T11:20:25.863Z,28.17
2022-11-28T11:23:12.830Z,22.85
2022-11-28T11:25:48.867Z,16.55
2022-11-28T11:28:42.936Z,19.90
2022-11-28T11:31:21.010Z,22.92
2022-11-28T11:33:51.474Z,21.00
2022-11-28T11:36:28.213Z,28.33
2022-11-28T11:39:13.106Z,26.95
2022-11-28T11:41:45.909Z,37.80
2022-11-28T11:44:16.090Z,29.23
2022-11-28T11:47:02.042Z,30.42
2022-11-28T11:49:35.054Z,38.03
2022-11-28T11:52:13.360Z,38.53
2022-11-28T11:55:00.986Z,42.22
2022-11-28T11:57:34.844Z,40.45
2022-11-28T12:00:07.534Z,38.70
2022-11-28T12:02:52.364Z,37.00
2022-11-28T12:05:52.750Z,58.25
2022-11-28T12:08:39.753Z,28.77
2022-11-28T12:11:28.099Z,35.17
2022-11-28T12:13:57.759Z,29.30
2022-11-28T12:17:25.689Z,41.03
2022-11-28T12:20:23.300Z,49.35
2022-11-28T12:23:18.057Z,61.03
2022-11-28T12:25:57.756Z,56.60
2022-11-28T12:28:45.141Z,51.55
2022-11-28T12:31:40.353Z,49.45
2022-11-28T12:34:26.966Z,47.33
2022-11-28T12:37:05.671Z,42.13
2022-11-28T12:39:39.657Z,42.72
2022-11-28T12:42:14.304Z,30.50
2022-11-28T12:45:17.799Z,36.88
2022-11-28T12:47:53.971Z,34.88
2022-11-28T12:50:26.946Z,37.22
2022-11-28T12:53:00.164Z,36.22
2022-11-28T12:55:49.627Z,35.35
2022-11-28T12:58:28.094Z,29.50
2022-11-28T13:01:00.688Z,42.38
2022-11-28T13:03:44.889Z,34.80
2022-11-28T13:06:29.968Z,35.17
2022-11-28T13:09:15.893Z,32.20
2022-11-28T13:12:03.910Z,36.10
2022-11-28T13:14:46.470Z,45.28
2022-11-28T13:17:36.251Z,37.80
2022-11-28T13:20:32.296Z,50.47
2022-11-28T13:23:04.684Z,30.35
2022-11-28T13:26:04.382Z,32.08
2022-11-28T13:28:41.043Z,35.20
2022-11-28T13:31:31.375Z,38.25
2022-11-28T13:33:58.688Z,37.65
2022-11-28T13:39:45.595Z,46.65
2022-11-28T13:43:03.951Z,27.67
2022-11-28T13:51:31.006Z,32.78
2022-11-28T13:54:17.778Z,41.78
2022-11-28T13:57:16.807Z,45.22
2022-11-28T14:00:00.568Z,28.80
2022-11-28T14:02:33.941Z,34.75
2022-11-28T14:05:01.916Z,34.42
2022-11-28T14:07:32.587Z,30.75
2022-11-28T14:10:24.542Z,43.67
2022-11-28T14:13:16.105Z,48.28
2022-11-28T14:16:03.113Z,48.28
2022-11-28T14:19:07.113Z,28.65
2022-11-28T14:21:52.471Z,35.25
2022-11-28T14:24:19.476Z,36.85
2022-11-28T14:26:46.715Z,40.22
2022-11-28T14:29:41.333Z,30.08
2022-11-28T14:32:32.093Z,38.80
2022-11-28T14:35:00.041Z,40.05
2022-11-28T14:37:35.920Z,35.28
2022-11-28T14:40:03.935Z,39.28
2022-11-28T14:42:59.013Z,35.25
2022-11-28T14:45:33.121Z,34.45
2022-11-28T14:48:19.696Z,39.95
2022-11-28T14:50:54.740Z,35.78
2022-11-28T14:53:44.904Z,32.05
2022-11-28T14:56:18.132Z,34.22
2022-11-28T14:58:52.527Z,36.58
2022-11-28T15:01:30.435Z,29.70
2022-11-28T15:04:00.816Z,36.65
2022-11-28T15:06:37.384Z,25.25
2022-11-28T15:09:19.853Z,19.83
2022-11-28T15:12:05.583Z,33.42
2022-11-28T15:14:33.611Z,31.52
2022-11-28T15:17:06.577Z,42.10
2022-11-28T15:19:45.442Z,27.15
2022-11-28T15:22:32.865Z,33.05
2022-11-28T15:25:00.251Z,34.35
2022-11-28T15:27:28.280Z,32.67
2022-11-28T15:30:00.549Z,31.23
2022-11-28T15:32:30.045Z,33.42
2022-11-28T15:35:06.554Z,26.90
2022-11-28T15:37:38.134Z,24.60
2022-11-28T15:40:06.753Z,30.05
2022-11-28T15:42:36.729Z,31.52
2022-11-28T15:45:16.266Z,21.35
2022-11-28T15:47:46.880Z,23.10
2022-11-28T15:50:25.330Z,24.63
2022-11-28T15:53:03.104Z,29.85
2022-11-28T15:55:34.842Z,31.35
2022-11-28T15:58:21.355Z,32.53
2022-11-28T16:00:59.030Z,26.42
2022-11-28T16:03:31.388Z,28.63
2022-11-28T16:05:59.847Z,30.35
2022-11-28T16:08:35.957Z,28.08
2022-11-28T16:11:05.956Z,27.50
2022-11-28T16:13:34.053Z,31.00
2022-11-28T16:16:04.534Z,33.65
2022-11-28T16:18:31.987Z,36.85
2022-11-28T16:21:01.342Z,26.33
2022-11-28T16:23:34.744Z,26.65
2022-11-28T16:26:08.533Z,31.63
2022-11-28T16:28:38.645Z,25.75
2022-11-28T16:31:13.148Z,33.67
2022-11-28T16:33:45.164Z,27.25
2022-11-28T16:36:20.918Z,32.63
2022-11-28T16:38:50.626Z,42.58
2022-11-28T16:41:27.545Z,30.88
2022-11-28T16:44:16.107Z,30.10
2022-11-28T16:46:52.174Z,27.65
2022-11-28T16:49:31.065Z,31.95
2022-11-28T16:52:27.625Z,32.22
2022-11-28T16:55:01.113Z,29.42
2022-11-28T16:57:46.717Z,24.92
2022-11-28T17:00:13.939Z,29.85
2022-11-28T17:02:40.920Z,34.30
2022-11-28T17:05:09.635Z,32.80
2022-11-28T17:07:37.087Z,29.25
2022-11-28T17:10:04.494Z,37.22
2022-11-28T17:12:39.193Z,30.50
2022-11-28T17:15:11.081Z,29.02
2022-11-28T17:17:38.038Z,32.05
2022-11-28T17:20:05.763Z,26.38
2022-11-28T17:22:41.181Z,31.45
2022-11-28T17:25:15.346Z,30.98
2022-11-28T17:27:42.789Z,35.13
2022-11-28T17:30:18.017Z,27.95
2022-11-28T17:32:47.298Z,30.67
2022-11-28T17:35:30.212Z,32.78
2022-11-28T17:37:57.322Z,28.13
2022-11-28T17:40:33.467Z,24.23
2022-11-28T17:43:01.476Z,21.90
2022-11-28T17:45:31.559Z,38.50
2022-11-28T17:47:58.663Z,30.70
2022-11-28T17:50:25.770Z,27.75
2022-11-28T17:52:52.913Z,28.45
2022-11-28T17:55:20.942Z,31.63
2022-11-28T17:57:48.167Z,26.95
2022-11-28T18:00:16.982Z,27.05
2022-11-28T18:02:44.082Z,39.25
2022-11-28T18:05:11.170Z,32.10
2022-11-28T18:07:38.211Z,25.80
2022-11-28T18:10:05.894Z,22.35
2022-11-28T18:12:33.049Z,23.77
2022-11-28T18:15:01.406Z,24.67
2022-11-28T18:17:28.559Z,36.90
2022-11-28T18:19:57.678Z,39.17
2022-11-28T18:22:25.282Z,38.70
2022-11-28T18:24:52.226Z,38.85
2022-11-28T18:27:19.176Z,31.25
2022-11-28T18:29:46.625Z,38.63
2022-11-28T18:32:13.859Z,30.85
2022-11-28T18:34:40.944Z,30.75
2022-11-28T18:37:08.722Z,34.42
2022-11-28T18:39:35.839Z,31.40
2022-11-28T18:42:02.875Z,31.52
2022-11-28T18:44:29.949Z,34.92
2022-11-28T18:46:56.952Z,32.08
2022-11-28T18:49:23.918Z,27.45
2022-11-28T18:51:51.103Z,26.48
2022-11-28T18:54:21.400Z,26.80
2022-11-28T18:56:49.063Z,32.25
2022-11-28T18:59:16.174Z,27.10
2022-11-28T19:01:43.228Z,22.60
2022-11-28T19:04:12.819Z,25.60
2022-11-28T19:06:41.169Z,31.05
2022-11-28T19:09:12.524Z,23.38
2022-11-28T19:11:40.661Z,21.02
2022-11-28T19:14:08.919Z,29.05
2022-11-28T19:16:37.935Z,25.52
2022-11-28T19:19:06.960Z,23.27
2022-11-28T19:21:35.721Z,20.58
2022-11-28T19:24:03.648Z,26.65
2022-11-28T19:26:33.690Z,22.15
2022-11-28T19:29:01.841Z,29.73
2022-11-28T19:31:34.340Z,23.42
2022-11-28T19:34:13.357Z,27.00
2022-11-28T19:36:43.492Z,20.15
2022-11-28T19:39:24.453Z,24.20
2022-11-28T19:41:55.409Z,25.63
2022-11-28T19:44:24.484Z,16.65
2022-11-28T19:46:53.084Z,18.80
2022-11-28T19:49:22.936Z,18.08
2022-11-28T19:51:50.773Z,20.50
2022-11-28T19:54:21.719Z,23.25
2022-11-28T19:56:49.718Z,18.52
2022-11-28T19:59:17.540Z,24.95
2022-11-28T20:01:44.883Z,22.00
2022-11-28T20:04:11.917Z,18.77
2022-11-28T20:06:39.225Z,20.15
2022-11-28T20:09:09.859Z,17.30
2022-11-28T20:11:37.552Z,25.25
2022-11-28T20:14:11.756Z,20.23
2022-11-28T20:16:39.011Z,24.60
2022-11-28T20:19:07.158Z,20.00
2022-11-28T20:21:34.710Z,24.95
2022-11-28T20:24:04.875Z,25.50
2022-11-28T20:26:35.398Z,18.65
2022-11-28T20:29:02.443Z,25.17
2022-11-28T20:31:35.136Z,21.38
2022-11-28T20:34:02.472Z,20.42
2022-11-28T20:36:31.307Z,24.58
2022-11-28T20:38:59.077Z,27.08
2022-11-28T20:41:27.573Z,20.23
2022-11-28T20:43:54.606Z,22.05
2022-11-28T20:46:28.531Z,24.77
2022-11-28T20:48:58.158Z,23.48
2022-11-28T20:51:26.641Z,20.23
2022-11-28T20:53:54.775Z,24.77
2022-11-28T20:56:23.919Z,21.15
2022-11-28T20:58:57.721Z,20.83
2022-11-28T21:01:27.562Z,26.45
2022-11-28T21:03:56.138Z,19.33
2022-11-28T21:06:23.237Z,22.08
2022-11-28T21:08:50.364Z,27.63
2022-11-28T21:11:36.925Z,21.00
2022-11-28T21:14:07.314Z,28.20
2022-11-28T21:16:34.759Z,23.77
2022-11-28T21:19:09.144Z,19.48
2022-11-28T21:21:38.687Z,24.10
2022-11-28T21:24:08.950Z,25.95
2022-11-28T21:26:40.961Z,23.25
2022-11-28T21:29:09.813Z,27.10
2022-11-28T21:31:41.202Z,27.10
2022-11-28T21:34:08.326Z,30.65
2022-11-28T21:36:35.580Z,20.00
2022-11-28T21:39:02.596Z,28.33
2022-11-28T21:41:31.667Z,23.13
2022-11-28T21:44:00.501Z,27.33
2022-11-28T21:46:27.807Z,25.80
2022-11-28T21:48:55.025Z,21.17
2022-11-28T21:51:24.898Z,27.40
2022-11-28T21:53:52.866Z,20.45
2022-11-28T21:56:20.081Z,25.90
2022-11-28T21:58:47.068Z,21.75
2022-11-28T22:01:15.377Z,24.65
2022-11-28T22:03:43.995Z,23.85
2022-11-28T22:06:16.232Z,21.83
2022-11-28T22:08:43.671Z,29.85
2022-11-28T22:11:14.380Z,19.92
2022-11-28T22:13:42.724Z,22.10
2022-11-28T22:16:29.676Z,27.10
2022-11-28T22:18:59.680Z,30.17
2022-11-28T22:24:14.245Z,32.50
2022-11-28T22:26:41.294Z,25.50
2022-11-28T22:29:08.816Z,29.13
2022-11-28T22:31:35.991Z,29.13
2022-11-28T22:34:03.086Z,28.27
2022-11-28T22:36:31.603Z,28.52
2022-11-28T22:38:59.569Z,30.02
2022-11-28T22:41:29.331Z,22.50
2022-11-28T22:44:00.809Z,29.58
2022-11-28T22:46:28.863Z,23.30
2022-11-28T22:48:56.246Z,29.45
2022-11-28T22:51:25.664Z,21.95
2022-11-28T22:53:57.379Z,20.20
2022-11-28T22:56:24.870Z,25.45
2022-11-28T22:58:52.127Z,32.55
2022-11-28T23:01:23.015Z,29.58
2022-11-28T23:03:50.512Z,24.13
2022-11-28T23:06:22.666Z,26.33
2022-11-28T23:08:50.138Z,29.92
2022-11-28T23:11:20.150Z,20.95
2022-11-28T23:13:51.015Z,29.73
2022-11-28T23:16:19.617Z,24.85
2022-11-28T23:18:49.473Z,36.72
2022-11-28T23:21:18.149Z,23.58
2022-11-28T23:23:46.230Z,28.45
2022-11-28T23:26:19.235Z,18.88
2022-11-28T23:28:46.599Z,19.80
2022-11-28T23:31:17.928Z,25.20
2022-11-28T23:33:45.815Z,20.60
2022-11-28T23:36:23.694Z,29.80
2022-11-28T23:38:59.575Z,18.75
2022-11-28T23:41:27.646Z,16.27
2022-11-28T23:43:54.854Z,20.30
2022-11-28T23:46:23.399Z,23.27
2022-11-28T23:48:50.854Z,21.50
2022-11-28T23:51:21.685Z,21.85
2022-11-28T23:53:50.132Z,26.00
2022-11-28T23:56:22.960Z,22.63
2022-11-28T23:58:50.957Z,17.02
